Time;durP1;ratioP1;P1;durP2;ratioP2;P2;SDS_P1;SDS_P2;PMS_P1;PMS_P2;Temp;Humidity;BMP_temperature;BMP_pressure;BME280_temperature;BME280_humidity;BME280_pressure;Samples;Min_cycle;Max_cycle;Signal;HPM_P1;HPM_P2
2024/03/02 00:01:46;;;;;;;53.83;34.33;;;11.50;99.90;;;;;;5053164;28;20060;-72
2024/03/02 00:04:51;;;;;;;45.70;32.40;;;11.60;99.90;;;;;;5053294;28;20040;-71
2024/03/02 00:07:57;;;;;;;46.30;31.92;;;11.50;99.90;;;;;;5053652;28;20048;-71
2024/03/02 00:11:04;;;;;;;46.17;31.05;;;11.40;99.90;;;;;;5052688;28;20040;-72
2024/03/02 00:14:08;;;;;;;47.85;31.20;;;11.50;99.90;;;;;;5052376;28;20056;-72
2024/03/02 00:17:23;;;;;;;46.72;30.13;;;11.40;99.90;;;;;;5053413;28;20036;-73
2024/03/02 00:20:28;;;;;;;47.80;28.90;;;11.40;99.90;;;;;;5053117;28;20063;-72
2024/03/02 00:23:34;;;;;;;45.72;29.13;;;11.50;99.90;;;;;;5052988;28;20052;-72
2024/03/02 00:26:38;;;;;;;49.95;30.92;;;11.40;99.90;;;;;;5052393;28;20071;-72
2024/03/02 00:29:43;;;;;;;46.85;30.45;;;11.50;99.90;;;;;;5052996;28;20052;-72
2024/03/02 00:32:46;;;;;;;51.30;31.05;;;11.60;99.90;;;;;;5052546;28;20044;-72
2024/03/02 00:35:51;;;;;;;52.42;31.30;;;11.60;99.90;;;;;;5052588;28;20043;-72
2024/03/02 00:38:55;;;;;;;50.33;31.63;;;11.70;99.90;;;;;;5052918;28;20139;-71
2024/03/02 00:41:59;;;;;;;46.50;33.33;;;13.40;99.90;;;;;;5052379;28;20056;-71
2024/03/02 00:45:08;;;;;;;50.17;34.35;;;11.80;99.90;;;;;;5051642;28;20048;-73
2024/03/02 00:48:14;;;;;;;47.50;34.55;;;12.90;99.90;;;;;;5053471;28;20072;-71
2024/03/02 00:51:18;;;;;;;46.85;33.00;;;11.90;99.90;;;;;;5052495;28;20500;-71
2024/03/02 00:54:25;;;;;;;52.17;34.25;;;11.60;99.90;;;;;;5052308;28;20044;-71
2024/03/02 00:57:34;;;;;;;55.53;36.40;;;11.60;99.90;;;;;;5052530;28;20048;-72
2024/03/02 01:00:38;;;;;;;59.80;36.33;;;10.10;99.90;;;;;;5052148;28;20527;-71
2024/03/02 01:03:42;;;;;;;47.72;33.70;;;11.50;99.90;;;;;;5052382;28;20044;-72
2024/03/02 01:06:46;;;;;;;52.75;35.35;;;11.60;99.90;;;;;;5051411;28;20044;-72
2024/03/02 01:09:50;;;;;;;55.10;36.60;;;13.60;99.90;;;;;;5052352;28;20524;-72
2024/03/02 01:12:54;;;;;;;57.08;36.58;;;12.80;99.90;;;;;;5052011;28;20052;-71
2024/03/02 01:15:58;;;;;;;58.78;34.85;;;11.50;99.90;;;;;;5051800;28;20040;-72
2024/03/02 01:19:03;;;;;;;54.70;35.70;;;11.70;99.90;;;;;;5052153;28;20404;-72
2024/03/02 01:22:07;;;;;;;48.25;34.92;;;13.40;99.90;;;;;;5051578;28;20055;-71
2024/03/02 01:25:11;;;;;;;54.67;34.42;;;11.50;99.90;;;;;;5052170;28;20584;-71
2024/03/02 01:28:15;;;;;;;50.63;33.45;;;14.10;99.90;;;;;;5051986;28;20044;-71
2024/03/02 01:31:19;;;;;;;55.83;36.38;;;11.50;99.90;;;;;;5051224;28;20051;-71
2024/03/02 01:34:24;;;;;;;49.55;34.97;;;11.00;99.90;;;;;;5051766;28;20044;-72
2024/03/02 01:37:28;;;;;;;46.70;35.70;;;12.50;99.90;;;;;;5039840;28;20048;-72
2024/03/02 01:40:34;;;;;;;47.15;32.60;;;10.80;99.90;;;;;;5051772;28;20390;-72
2024/03/02 01:43:38;;;;;;;51.65;33.30;;;11.20;99.90;;;;;;5051829;28;20056;-72
2024/03/02 01:46:42;;;;;;;53.15;34.33;;;11.30;99.90;;;;;;5051414;28;20040;-71
2024/03/02 01:49:46;;;;;;;48.33;34.03;;;11.40;99.90;;;;;;5051571;28;20052;-72
2024/03/02 01:52:50;;;;;;;50.47;33.58;;;13.30;99.90;;;;;;5051354;28;20052;-72
2024/03/02 01:55:54;;;;;;;48.63;34.08;;;11.70;99.90;;;;;;5050803;28;20043;-71
2024/03/02 01:58:58;;;;;;;44.00;33.53;;;11.30;99.90;;;;;;5051254;28;20044;-72
2024/03/02 02:02:03;;;;;;;47.47;33.13;;;11.60;99.90;;;;;;5050202;28;20055;-71
2024/03/02 02:05:07;;;;;;;55.85;33.50;;;12.40;99.90;;;;;;5050312;28;20040;-71
2024/03/02 02:08:11;;;;;;;49.42;32.50;;;11.10;99.90;;;;;;5038803;28;20052;-71
2024/03/02 02:11:16;;;;;;;44.20;32.10;;;12.60;99.90;;;;;;5050966;28;20407;-71
2024/03/02 02:14:20;;;;;;;46.28;31.77;;;11.10;99.90;;;;;;5050461;28;20543;-72
2024/03/02 02:17:24;;;;;;;44.67;31.95;;;11.10;99.90;;;;;;5051362;28;20059;-72
2024/03/02 02:20:28;;;;;;;50.88;33.00;;;12.70;99.90;;;;;;5051371;28;20048;-72
2024/03/02 02:23:32;;;;;;;42.38;32.38;;;11.80;99.90;;;;;;5051000;28;20040;-72
2024/03/02 02:26:36;;;;;;;45.45;31.67;;;12.40;99.90;;;;;;5051172;28;20044;-72
2024/03/02 02:29:40;;;;;;;44.13;31.45;;;11.00;99.90;;;;;;5050396;28;20052;-72
2024/03/02 02:32:44;;;;;;;51.58;33.45;;;12.40;99.90;;;;;;5051055;28;20400;-71
2024/03/02 02:35:48;;;;;;;47.97;33.85;;;12.00;99.90;;;;;;5055129;28;20042;-71
2024/03/02 02:38:52;;;;;;;43.22;33.58;;;10.90;99.90;;;;;;5055137;28;20048;-72
2024/03/02 02:41:56;;;;;;;52.72;34.88;;;10.60;99.90;;;;;;5055217;28;20052;-71
2024/03/02 02:45:00;;;;;;;55.35;35.63;;;11.10;99.90;;;;;;5054376;28;20070;-71
2024/03/02 02:48:05;;;;;;;51.58;35.45;;;12.70;99.90;;;;;;5055395;28;20048;-72
2024/03/02 02:51:09;;;;;;;52.95;36.53;;;12.50;99.90;;;;;;5054790;28;20040;-72
2024/03/02 02:54:12;;;;;;;50.80;35.05;;;10.90;99.90;;;;;;5054146;28;20044;-71
2024/03/02 02:57:16;;;;;;;52.47;35.45;;;13.30;99.90;;;;;;5054978;28;20055;-71
2024/03/02 03:00:22;;;;;;;50.65;34.78;;;11.00;99.90;;;;;;5054861;28;20409;-74
2024/03/02 03:03:26;;;;;;;48.42;34.70;;;11.00;99.90;;;;;;5054838;28;20401;-72
2024/03/02 03:06:30;;;;;;;49.58;33.92;;;11.00;99.90;;;;;;5042918;28;20044;-72
2024/03/02 03:09:38;;;;;;;49.92;33.20;;;10.90;99.90;;;;;;5054808;28;20044;-72
2024/03/02 03:12:43;;;;;;;45.67;34.25;;;12.60;99.90;;;;;;5054649;28;20641;-71
2024/03/02 03:15:47;;;;;;;48.90;34.67;;;10.90;99.90;;;;;;5054489;28;20044;-72
2024/03/02 03:18:53;;;;;;;47.03;35.20;;;12.30;99.90;;;;;;5054425;28;20044;-72
2024/03/02 03:21:57;;;;;;;47.50;34.42;;;10.50;99.90;;;;;;5054694;28;20135;-73
2024/03/02 03:25:01;;;;;;;49.15;35.58;;;10.90;99.90;;;;;;5054008;28;20380;-73
2024/03/02 03:28:06;;;;;;;54.22;35.58;;;12.40;99.90;;;;;;5053693;28;20047;-73
2024/03/02 03:31:10;;;;;;;47.90;34.33;;;10.90;99.90;;;;;;5054697;28;20040;-73
2024/03/02 03:34:15;;;;;;;50.67;36.10;;;11.00;99.90;;;;;;5054071;28;20385;-73
2024/03/02 03:37:19;;;;;;;48.22;35.10;;;10.60;99.90;;;;;;5054230;28;20052;-73
2024/03/02 03:40:23;;;;;;;45.25;34.53;;;11.10;99.90;;;;;;5053984;28;20045;-73
2024/03/02 03:43:27;;;;;;;46.55;35.60;;;11.00;99.90;;;;;;5054190;28;20040;-73
2024/03/02 03:46:31;;;;;;;49.22;35.05;;;11.10;99.90;;;;;;5053686;28;20124;-73
2024/03/02 03:49:35;;;;;;;52.00;34.85;;;11.10;99.90;;;;;;5054009;28;20604;-71
2024/03/02 03:52:39;;;;;;;49.42;35.22;;;10.90;99.90;;;;;;5053733;28;20048;-71
2024/03/02 03:55:43;;;;;;;45.97;33.95;;;11.20;99.90;;;;;;5053658;28;20514;-72
2024/03/02 03:58:47;;;;;;;45.70;34.30;;;11.20;99.90;;;;;;5053844;28;20047;-72
2024/03/02 04:01:51;;;;;;;49.78;34.53;;;11.20;99.90;;;;;;5052315;28;20072;-72
2024/03/02 04:04:56;;;;;;;46.88;33.92;;;11.40;99.90;;;;;;5053420;28;20652;-72
2024/03/02 04:08:01;;;;;;;45.60;33.30;;;11.40;99.90;;;;;;5052652;28;20052;-72
2024/03/02 04:11:06;;;;;;;47.63;32.13;;;13.10;99.90;;;;;;5052730;28;20064;-73
2024/03/02 04:14:10;;;;;;;47.55;29.13;;;11.50;99.90;;;;;;5053549;28;20048;-73
2024/03/02 04:17:14;;;;;;;39.63;28.48;;;13.00;99.90;;;;;;5053214;28;20044;-73
2024/03/02 04:20:18;;;;;;;41.22;27.38;;;11.40;99.90;;;;;;5053921;28;20503;-72
2024/03/02 04:23:21;;;;;;;31.27;23.05;;;12.20;99.90;;;;;;5053495;28;20068;-72
2024/03/02 04:26:26;;;;;;;29.52;22.92;;;11.30;99.90;;;;;;5053368;28;20060;-73
2024/03/02 04:29:30;;;;;;;29.58;21.75;;;12.30;99.90;;;;;;5052580;28;20068;-73
2024/03/02 04:32:36;;;;;;;26.52;19.63;;;11.10;99.90;;;;;;5041020;28;20036;-72
2024/03/02 04:35:40;;;;;;;31.88;19.52;;;11.20;99.90;;;;;;5052928;28;20044;-73
2024/03/02 04:38:44;;;;;;;24.20;18.83;;;13.20;99.90;;;;;;5052962;28;20069;-72
2024/03/02 04:41:47;;;;;;;28.75;18.92;;;11.20;99.90;;;;;;5052878;28;20393;-73
2024/03/02 04:44:51;;;;;;;24.23;17.50;;;11.10;99.90;;;;;;5052911;28;20492;-72
2024/03/02 04:47:55;;;;;;;31.40;19.88;;;11.30;99.90;;;;;;5052469;28;20044;-73
2024/03/02 04:50:59;;;;;;;28.40;19.17;;;11.10;99.90;;;;;;5052681;28;20044;-73
2024/03/02 04:54:03;;;;;;;27.88;19.42;;;12.90;99.90;;;;;;5052969;28;20048;-73
2024/03/02 04:57:07;;;;;;;25.60;19.77;;;11.20;99.90;;;;;;5051757;28;20056;-71
2024/03/02 05:00:12;;;;;;;27.98;20.10;;;11.20;99.90;;;;;;5052593;28;20067;-72
2024/03/02 05:03:16;;;;;;;25.60;18.95;;;12.60;99.90;;;;;;5052474;28;20048;-73
2024/03/02 05:06:20;;;;;;;25.40;19.17;;;11.20;99.90;;;;;;5052298;28;20523;-73
2024/03/02 05:09:24;;;;;;;26.08;18.77;;;11.10;99.90;;;;;;5052575;28;20044;-73
2024/03/02 05:15:46;;;;;;;28.50;20.08;;;11.10;99.90;;;;;;5051682;28;20665;-73
2024/03/02 05:18:50;;;;;;;25.80;19.77;;;11.10;99.90;;;;;;5052353;28;20075;-73
2024/03/02 05:21:54;;;;;;;28.35;20.52;;;11.20;99.90;;;;;;5052123;28;20402;-73
2024/03/02 05:24:59;;;;;;;26.48;19.08;;;11.20;99.90;;;;;;5052149;28;20377;-73
2024/03/02 05:28:03;;;;;;;31.60;19.85;;;11.30;99.90;;;;;;5052411;28;20401;-72
2024/03/02 05:31:11;;;;;;;31.50;21.35;;;11.40;99.90;;;;;;5052085;28;20044;-73
2024/03/02 05:34:15;;;;;;;29.00;20.20;;;11.50;99.90;;;;;;5051659;28;20070;-72
2024/03/02 05:37:19;;;;;;;31.35;21.98;;;11.60;99.90;;;;;;5051091;28;20044;-72
2024/03/02 05:40:23;;;;;;;30.48;21.63;;;11.60;99.90;;;;;;5052163;28;20504;-73
2024/03/02 05:43:27;;;;;;;32.25;22.02;;;11.40;99.90;;;;;;5052052;28;20056;-71
2024/03/02 05:46:31;;;;;;;32.67;23.15;;;11.40;99.90;;;;;;5052055;28;20040;-72
2024/03/02 05:49:36;;;;;;;33.75;24.50;;;11.60;99.90;;;;;;5052065;28;20048;-73
2024/03/02 05:52:40;;;;;;;42.15;26.17;;;11.70;99.90;;;;;;5052000;28;20036;-73
2024/03/02 05:55:45;;;;;;;38.97;25.67;;;11.60;99.90;;;;;;5052020;28;20044;-73
2024/03/02 06:02:11;;;;;;;35.20;23.42;;;12.30;99.90;;;;;;5051600;28;20432;-72
2024/03/02 06:05:17;;;;;;;33.83;22.92;;;11.60;99.90;;;;;;5052109;28;20048;-73
2024/03/02 06:08:22;;;;;;;31.30;21.50;;;11.50;99.90;;;;;;5050844;28;20405;-73
2024/03/02 06:11:26;;;;;;;31.50;21.40;;;11.50;99.90;;;;;;5051743;28;20047;-72
2024/03/02 06:14:30;;;;;;;28.63;19.77;;;11.50;99.90;;;;;;5051119;28;20060;-72
2024/03/02 06:17:36;;;;;;;31.63;18.17;;;11.50;99.90;;;;;;5052541;28;20044;-73
2024/03/02 06:20:39;;;;;;;30.67;19.40;;;11.60;99.90;;;;;;5051788;28;20036;-72
2024/03/02 06:23:44;;;;;;;26.08;17.42;;;11.60;99.90;;;;;;5051579;28;20401;-72
2024/03/02 06:26:47;;;;;;;28.05;18.73;;;11.60;99.90;;;;;;5051818;28;20397;-72
2024/03/02 06:29:51;;;;;;;25.65;18.38;;;11.60;99.90;;;;;;5051142;28;20056;-73
2024/03/02 06:32:57;;;;;;;27.38;19.48;;;11.60;99.90;;;;;;5052538;28;20048;-73
2024/03/02 06:36:02;;;;;;;28.38;20.23;;;11.80;99.90;;;;;;5051253;28;20064;-69
2024/03/02 06:39:06;;;;;;;24.92;19.50;;;11.80;99.90;;;;;;5051170;28;20048;-69
2024/03/02 06:42:14;;;;;;;26.63;19.00;;;12.00;99.90;;;;;;5050899;28;20048;-68
2024/03/02 06:45:18;;;;;;;22.55;18.65;;;12.00;99.90;;;;;;5050973;28;20107;-68
2024/03/02 06:48:23;;;;;;;23.98;18.38;;;12.10;99.90;;;;;;5051025;28;20040;-67
2024/03/02 06:51:27;;;;;;;22.58;16.13;;;12.10;99.90;;;;;;5050942;28;20055;-68
2024/03/02 06:54:32;;;;;;;23.33;16.23;;;12.10;99.90;;;;;;5050930;28;20048;-68
2024/03/02 06:57:36;;;;;;;22.50;16.80;;;12.10;99.90;;;;;;5050797;28;20048;-68
2024/03/02 07:00:40;;;;;;;25.17;18.73;;;12.20;99.90;;;;;;5050775;28;20060;-68
2024/03/02 07:03:44;;;;;;;28.98;19.83;;;12.30;99.90;;;;;;5051021;28;20060;-67
2024/03/02 07:06:48;;;;;;;29.40;19.55;;;12.10;99.90;;;;;;5050959;28;20381;-68
2024/03/02 07:09:52;;;;;;;32.65;20.85;;;12.00;99.90;;;;;;5050586;28;20504;-67
2024/03/02 07:12:56;;;;;;;32.17;22.15;;;12.00;99.90;;;;;;5050482;28;20060;-67
2024/03/02 07:19:07;;;;;;;29.20;20.00;;;12.10;99.90;;;;;;5050202;28;20052;-67
2024/03/02 07:22:11;;;;;;;26.88;19.30;;;12.20;99.90;;;;;;5054154;28;20060;-68
2024/03/02 07:25:16;;;;;;;26.55;18.65;;;12.00;99.90;;;;;;5053904;28;20473;-68
2024/03/02 07:28:20;;;;;;;26.05;20.40;;;12.10;99.90;;;;;;5054256;28;20052;-69
2024/03/02 07:31:24;;;;;;;29.40;19.15;;;12.10;99.90;;;;;;5053518;28;20393;-68
2024/03/02 07:34:28;;;;;;;23.00;17.60;;;13.00;99.90;;;;;;5054105;28;20657;-70
2024/03/02 07:37:32;;;;;;;29.25;17.90;;;12.30;99.90;;;;;;5054015;28;20048;-67
2024/03/02 07:40:36;;;;;;;39.97;22.15;;;12.40;99.90;;;;;;5053941;28;20071;-70
2024/03/02 07:43:40;;;;;;;29.25;20.45;;;12.40;99.90;;;;;;5054025;28;20048;-67
2024/03/02 07:46:46;;;;;;;26.92;20.10;;;12.40;99.90;;;;;;5054044;28;20044;-67
2024/03/02 07:49:50;;;;;;;31.25;20.88;;;12.40;99.90;;;;;;5054009;28;20044;-65
2024/03/02 07:52:54;;;;;;;29.55;19.17;;;12.20;99.90;;;;;;5053677;28;20051;-65
2024/03/02 07:56:02;;;;;;;27.10;20.30;;;12.20;99.90;;;;;;5041204;28;20052;-66
2024/03/02 07:59:07;;;;;;;31.33;21.00;;;12.10;99.90;;;;;;5053519;28;20397;-65
2024/03/02 08:02:12;;;;;;;27.92;19.65;;;12.20;99.90;;;;;;5053270;28;20072;-68
2024/03/02 08:05:18;;;;;;;26.60;20.02;;;12.40;99.90;;;;;;5052724;28;20048;-68
2024/03/02 08:08:23;;;;;;;29.83;20.60;;;;;;;;;;5051945;28;20384;-69
2024/03/02 08:11:27;;;;;;;26.70;18.13;;;11.80;99.90;;;;;;5052843;28;20060;-68
2024/03/02 08:14:31;;;;;;;27.52;18.58;;;;;;;;;;5052854;28;20044;-68
2024/03/02 08:17:36;;;;;;;27.73;17.27;;;;;;;;;;5053051;28;20040;-71
2024/03/02 08:20:40;;;;;;;19.85;15.52;;;12.30;99.90;;;;;;5053458;28;20527;-68
2024/03/02 08:23:45;;;;;;;23.63;15.50;;;;;;;;;;5053188;28;20072;-68
2024/03/02 08:26:49;;;;;;;21.75;15.38;;;12.20;99.90;;;;;;5053180;28;20492;-67
2024/03/02 08:29:53;;;;;;;26.05;18.58;;;12.90;99.90;;;;;;5053140;28;20047;-68
2024/03/02 08:32:57;;;;;;;30.50;19.02;;;12.60;99.90;;;;;;5052126;28;20040;-67
2024/03/02 08:36:02;;;;;;;26.38;17.00;;;;;;;;;;5053082;28;20048;-68
2024/03/02 08:39:12;;;;;;;30.10;18.80;;;;;;;;;;5053138;28;20048;-68
2024/03/02 08:42:19;;;;;;;27.02;17.52;;;12.60;99.90;;;;;;5052847;28;20524;-67
2024/03/02 08:45:24;;;;;;;23.15;17.42;;;;;;;;;;5051799;28;20032;-69
2024/03/02 08:48:29;;;;;;;29.80;19.13;;;;;;;;;;5052360;28;20044;-67
2024/03/02 08:51:33;;;;;;;30.67;21.33;;;;;;;;;;5052025;28;20052;-71
2024/03/02 08:54:38;;;;;;;33.25;22.33;;;;;;;;;;5052404;28;20044;-69
2024/03/02 08:57:42;;;;;;;33.35;23.15;;;;;;;;;;5052465;28;20128;-68
2024/03/02 09:00:47;;;;;;;34.30;25.83;;;12.60;99.90;;;;;;5052341;28;20072;-65
2024/03/02 09:03:51;;;;;;;29.10;18.77;;;;;;;;;;5052393;28;20072;-67
2024/03/02 09:06:56;;;;;;;24.02;17.55;;;;;;;;;;5052184;28;20051;-66
2024/03/02 09:10:00;;;;;;;24.77;18.75;;;;;;;;;;5052164;28;20043;-68
2024/03/02 09:13:04;;;;;;;30.88;22.13;;;;;;;;;;5051117;28;20040;-69
2024/03/02 09:16:10;;;;;;;27.13;18.10;;;;;;;;;;5051687;28;20210;-70
2024/03/02 09:19:15;;;;;;;23.27;16.63;;;;;;;;;;5051719;28;20048;-68
2024/03/02 09:22:19;;;;;;;26.33;16.85;;;;;;;;;;5051905;28;20048;-69
2024/03/02 09:25:24;;;;;;;24.92;14.55;;;;;;;;;;5051473;28;20044;-69
2024/03/02 09:28:29;;;;;;;22.25;14.00;;;;;;;;;;5051835;28;20060;-69
2024/03/02 09:31:33;;;;;;;25.30;14.73;;;;;;;;;;5051738;28;20052;-68
2024/03/02 09:34:38;;;;;;;30.73;18.30;;;;;;;;;;5051604;28;20072;-68
2024/03/02 09:37:42;;;;;;;24.20;15.60;;;;;;;;;;5051766;28;20052;-69
2024/03/02 09:40:47;;;;;;;23.80;16.23;;;;;;;;;;5051452;28;20044;-67
2024/03/02 09:43:51;;;;;;;28.05;18.55;;;12.90;99.90;;;;;;5051498;28;20089;-66
2024/03/02 09:46:55;;;;;;;23.98;14.90;;;;;;;;;;5051243;28;20040;-67
2024/03/02 09:50:00;;;;;;;19.38;15.20;;;;;;;;;;5051375;28;20047;-68
2024/03/02 09:53:04;;;;;;;20.92;15.50;;;12.90;99.90;;;;;;5051016;28;20051;-68
2024/03/02 09:56:09;;;;;;;22.58;15.13;;;;;;;;;;5051004;28;20052;-68
2024/03/02 09:59:16;;;;;;;24.17;14.48;;;;;;;;;;5051186;28;20040;-67
2024/03/02 10:02:20;;;;;;;24.60;14.30;;;;;;;;;;5051274;28;20056;-68
2024/03/02 10:05:28;;;;;;;20.60;14.65;;;12.80;99.90;;;;;;5051181;28;20048;-68
2024/03/02 10:08:44;;;;;;;19.08;11.13;;;13.10;99.90;;;;;;5050371;28;20048;-68
2024/03/02 10:11:49;;;;;;;20.83;11.85;;;;;;;;;;5051015;28;20044;-67
2024/03/02 10:15:04;;;;;;;19.58;13.93;;;13.30;99.90;;;;;;5051032;28;20048;-66
2024/03/02 10:18:13;;;;;;;22.67;14.27;;;13.20;99.90;;;;;;5050979;28;20044;-68
2024/03/02 10:21:17;;;;;;;23.40;14.75;;;;;;;;;;5050490;28;20040;-65
2024/03/02 10:24:22;;;;;;;21.80;14.27;;;13.50;99.90;;;;;;5049676;28;20060;-66
2024/03/02 10:27:29;;;;;;;23.52;16.02;;;13.40;99.90;;;;;;5049426;28;20195;-67
2024/03/02 10:30:34;;;;;;;22.45;14.45;;;13.50;99.90;;;;;;5049982;28;20040;-68
2024/03/02 10:33:39;;;;;;;27.48;14.80;;;;;;;;;;5049410;28;20040;-67
2024/03/02 10:36:45;;;;;;;24.17;16.05;;;13.70;99.90;;;;;;5051011;28;20040;-68
2024/03/02 10:39:49;;;;;;;22.52;14.43;;;;;;;;;;5051030;28;20044;-68
2024/03/02 10:42:53;;;;;;;29.08;20.95;;;13.50;99.90;;;;;;5050573;28;20067;-68
2024/03/02 10:45:58;;;;;;;26.90;16.60;;;13.50;99.90;;;;;;5050484;28;20059;-68
2024/03/02 10:49:04;;;;;;;26.27;15.38;;;13.60;99.90;;;;;;5050740;28;20060;-66
2024/03/02 10:52:09;;;;;;;27.83;15.25;;;;;;;;;;5049817;28;20389;-68
2024/03/02 10:55:13;;;;;;;26.63;17.48;;;;;;;;;;5052200;28;20064;-66
2024/03/02 10:58:17;;;;;;;24.38;15.35;;;;;;;;;;5055064;28;20052;-66
2024/03/02 11:01:21;;;;;;;22.48;12.13;;;;;;;;;;5054476;28;20493;-68
2024/03/02 11:04:27;;;;;;;22.38;13.15;;;14.30;99.90;;;;;;5053660;28;20428;-69
2024/03/02 11:07:32;;;;;;;18.88;12.20;;;14.40;99.90;;;;;;5054547;28;20040;-69
2024/03/02 11:10:47;;;;;;;23.23;10.40;;;14.70;99.90;;;;;;5054163;28;20064;-67
2024/03/02 11:13:55;;;;;;;18.98;10.70;;;14.30;99.90;;;;;;5054336;28;20493;-69
2024/03/02 11:17:01;;;;;;;15.90;8.75;;;15.30;99.90;;;;;;5053428;28;20645;-68
2024/03/02 11:20:08;;;;;;;16.20;8.48;;;;;;;;;;5053845;28;20044;-68
2024/03/02 11:23:13;;;;;;;16.45;6.55;;;;;;;;;;5054031;28;20048;-68
2024/03/02 11:26:22;;;;;;;15.02;6.07;;;15.20;99.90;;;;;;5053929;28;20040;-69
2024/03/02 11:29:35;;;;;;;14.63;7.20;;;15.20;99.90;;;;;;5053945;28;20061;-68
2024/03/02 11:32:40;;;;;;;11.05;5.88;;;;;;;;;;5053873;28;20036;-68
2024/03/02 11:35:48;;;;;;;14.80;5.65;;;16.20;99.90;;;;;;5053684;28;20065;-68
2024/03/02 11:38:53;;;;;;;10.60;5.15;;;;;;;;;;5053994;28;20388;-69
2024/03/02 11:41:58;;;;;;;12.70;5.05;;;15.20;99.90;;;;;;5052926;28;20048;-68
2024/03/02 11:45:02;;;;;;;13.88;8.00;;;;;;;;;;5053734;28;20056;-67
2024/03/02 11:48:08;;;;;;;13.38;8.05;;;14.80;99.90;;;;;;5053697;28;20040;-69
2024/03/02 11:51:12;;;;;;;12.88;9.07;;;;;;;;;;5053437;28;20051;-68
2024/03/02 11:54:17;;;;;;;15.50;8.52;;;;;;;;;;5053491;28;20048;-68
2024/03/02 11:57:27;;;;;;;17.35;7.95;;;14.80;99.90;;;;;;5053706;28;20052;-69
2024/03/02 12:00:31;;;;;;;20.08;7.53;;;;;;;;;;5053234;28;20060;-67
2024/03/02 12:03:35;;;;;;;18.20;7.88;;;;;;;;;;5053192;28;20231;-68
2024/03/02 12:06:41;;;;;;;20.35;7.50;;;;;;;;;;5051418;28;20048;-68
2024/03/02 12:09:45;;;;;;;15.75;10.43;;;;;;;;;;5053497;28;20044;-68
2024/03/02 12:12:56;;;;;;;18.42;11.15;;;14.80;99.90;;;;;;5053345;28;20521;-69
2024/03/02 12:16:00;;;;;;;17.23;9.63;;;;;;;;;;5053264;28;20060;-68
2024/03/02 12:19:05;;;;;;;19.88;8.90;;;;;;;;;;5053125;28;20286;-68
2024/03/02 12:22:09;;;;;;;21.00;9.00;;;;;;;;;;5051950;28;20043;-68
2024/03/02 12:25:14;;;;;;;20.35;9.63;;;;;;;;;;5053234;28;20043;-68
2024/03/02 12:28:19;;;;;;;15.50;9.00;;;;;;;;;;5053286;28;20044;-68
2024/03/02 12:31:23;;;;;;;14.60;8.52;;;;;;;;;;5052123;28;20661;-69
2024/03/02 12:34:27;;;;;;;21.20;8.05;;;;;;;;;;5053197;28;20048;-68
2024/03/02 12:37:31;;;;;;;17.85;6.55;;;;;;;;;;5052417;28;20044;-68
2024/03/02 12:40:37;;;;;;;16.15;7.50;;;;;;;;;;5051902;28;20068;-68
2024/03/02 12:43:41;;;;;;;14.48;6.25;;;;;;;;;;5052656;28;20064;-68
2024/03/02 12:46:46;;;;;;;19.73;6.88;;;16.30;99.90;;;;;;5052848;28;20456;-68
2024/03/02 12:49:52;;;;;;;20.00;7.07;;;;;;;;;;5052155;28;20516;-68
2024/03/02 12:52:56;;;;;;;17.92;6.95;;;;;;;;;;5052549;28;20421;-68
2024/03/02 12:56:00;;;;;;;24.08;9.10;;;;;;;;;;5052566;28;20504;-69
2024/03/02 12:59:10;;;;;;;22.25;8.75;;;15.10;99.90;;;;;;5051729;28;20044;-68
2024/03/02 13:02:18;;;;;;;35.35;9.02;;;15.00;99.90;;;;;;5052528;28;20048;-69
2024/03/02 13:05:22;;;;;;;32.72;6.40;;;;;;;;;;5052325;28;20048;-69
2024/03/02 13:08:27;;;;;;;24.30;5.03;;;16.50;99.90;;;;;;5052053;28;20044;-70
2024/03/02 13:11:31;;;;;;;28.23;6.45;;;;;;;;;;5052205;28;20060;-69
2024/03/02 13:14:36;;;;;;;28.58;8.43;;;;;;;;;;5052337;28;20052;-68
2024/03/02 13:17:40;;;;;;;29.60;7.05;;;;;;;;;;5051442;28;20660;-69
2024/03/02 13:20:44;;;;;;;30.27;6.65;;;;;;;;;;5052262;28;20043;-68
2024/03/02 13:23:48;;;;;;;24.23;4.60;;;;;;;;;;5051871;28;20657;-67
2024/03/02 13:26:55;;;;;;;22.42;5.60;;;;;;;;;;5052244;28;20049;-67
2024/03/02 13:29:59;;;;;;;31.80;5.53;;;;;;;;;;5052163;28;20056;-67
2024/03/02 13:33:03;;;;;;;30.70;7.03;;;;;;;;;;5051634;28;20036;-67
2024/03/02 13:36:08;;;;;;;27.50;5.68;;;;;;;;;;5048296;28;20040;-67
2024/03/02 13:39:15;;;;;;;26.98;5.82;;;;;;;;;;5050210;28;20504;-67
2024/03/02 13:42:19;;;;;;;31.23;4.57;;;;;;;;;;5049991;28;20500;-68
2024/03/02 13:45:23;;;;;;;23.23;5.55;;;;;;;;;;5051336;28;20044;-67
2024/03/02 13:48:28;;;;;;;29.80;6.43;;;;;;;;;;5051276;28;20044;-67
2024/03/02 13:51:33;;;;;;;23.85;5.30;;;;;;;;;;5051326;28;20047;-67
2024/03/02 13:54:47;;;;;;;26.10;7.55;;;14.60;99.90;;;;;;5050748;28;20071;-67
2024/03/02 13:57:51;;;;;;;39.65;7.32;;;;;;;;;;5050978;28;20048;-67
2024/03/02 14:00:57;;;;;;;30.23;6.60;;;;;;;;;;5050963;28;20056;-68
2024/03/02 14:04:01;;;;;;;27.35;6.50;;;;;;;;;;5050939;28;20059;-66
2024/03/02 14:07:08;;;;;;;28.52;6.47;;;14.20;99.90;;;;;;5051247;28;20040;-67
2024/03/02 14:10:12;;;;;;;33.38;7.20;;;;;;;;;;5050847;28;20048;-67
2024/03/02 14:13:16;;;;;;;43.63;7.28;;;;;;;;;;5051126;28;20044;-67
2024/03/02 14:16:21;;;;;;;39.53;6.53;;;;;;;;;;5051187;28;20400;-68
2024/03/02 14:19:25;;;;;;;41.17;7.55;;;;;;;;;;5050917;28;20373;-68
2024/03/02 14:22:30;;;;;;;30.40;7.07;;;;;;;;;;5050922;28;20056;-68
2024/03/02 14:25:34;;;;;;;36.78;8.77;;;;;;;;;;5050577;28;20048;-67
2024/03/02 14:28:38;;;;;;;38.40;8.93;;;;;;;;;;5050433;28;20504;-68
2024/03/02 14:31:43;;;;;;;41.00;9.18;;;;;;;;;;5049966;28;20397;-68
2024/03/02 14:34:48;;;;;;;43.22;9.85;;;;;;;;;;5050749;28;20044;-70
2024/03/02 14:37:53;;;;;;;30.35;6.20;;;;;;;;;;5050901;28;20055;-67
2024/03/02 14:40:57;;;;;;;36.72;7.70;;;;;;;;;;5050942;28;20048;-68
2024/03/02 14:44:01;;;;;;;30.33;7.00;;;;;;;;;;5050704;28;20055;-68
2024/03/02 14:47:07;;;;;;;29.85;6.40;;;14.50;99.90;;;;;;5050647;28;20052;-67
2024/03/02 14:50:12;;;;;;;25.30;5.60;;;;;;;;;;5051126;28;20512;-66
2024/03/02 14:53:16;;;;;;;24.95;6.47;;;;;;;;;;5049473;28;20393;-69
2024/03/02 14:56:20;;;;;;;24.77;5.97;;;;;;;;;;5049200;28;20040;-69
2024/03/02 14:59:24;;;;;;;20.65;6.32;;;;;;;;;;5050270;28;20439;-68
2024/03/02 15:02:29;;;;;;;30.45;6.80;;;15.30;99.90;;;;;;5050281;28;20056;-68
2024/03/02 15:05:33;;;;;;;33.22;7.32;;;;;;;;;;5049496;28;20048;-69
2024/03/02 15:08:37;;;;;;;29.17;4.97;;;;;;;;;;5050759;28;20393;-69
2024/03/02 15:11:42;;;;;;;16.38;3.33;;;;;;;;;;5050843;28;20060;-68
2024/03/02 15:14:47;;;;;;;16.42;3.00;;;;;;;;;;5050431;28;20044;-68
2024/03/02 15:17:52;;;;;;;38.75;5.43;;;;;;;;;;5049156;28;20055;-68
2024/03/02 15:20:56;;;;;;;26.58;4.05;;;;;;;;;;5049839;28;20048;-69
2024/03/02 15:24:01;;;;;;;30.15;6.18;;;;;;;;;;5038555;28;20527;-72
2024/03/02 15:27:07;;;;;;;25.05;4.75;;;14.50;99.90;;;;;;5051290;28;20405;-73
2024/03/02 15:30:12;;;;;;;27.30;4.78;;;;;;;;;;5050399;28;20052;-73
2024/03/02 15:33:18;;;;;;;21.95;4.45;;;;;;;;;;5050803;28;20052;-73
2024/03/02 15:36:22;;;;;;;22.35;3.88;;;;;;;;;;5051174;28;20044;-72
2024/03/02 15:39:27;;;;;;;19.55;3.40;;;;;;;;;;5053449;28;20040;-73
2024/03/02 15:42:31;;;;;;;29.10;4.78;;;;;;;;;;5054711;28;20052;-72
2024/03/02 15:45:35;;;;;;;23.55;4.38;;;;;;;;;;5054882;28;20044;-71
2024/03/02 15:48:40;;;;;;;17.17;3.55;;;;;;;;;;5054996;28;20040;-72
2024/03/02 15:51:44;;;;;;;18.13;4.15;;;;;;;;;;5054769;28;20060;-72
2024/03/02 15:54:49;;;;;;;14.98;3.88;;;15.10;99.90;;;;;;5054972;28;20041;-72
2024/03/02 15:57:54;;;;;;;19.00;4.30;;;;;;;;;;5042983;28;20048;-74
2024/03/02 16:00:58;;;;;;;23.75;4.78;;;;;;;;;;5055378;28;20071;-73
2024/03/02 16:04:03;;;;;;;20.33;5.22;;;;;;;;;;5054754;28;20052;-74
2024/03/02 16:07:07;;;;;;;20.27;4.95;;;;;;;;;;5054758;28;20040;-72
2024/03/02 16:10:12;;;;;;;16.35;4.40;;;;;;;;;;5054880;28;20048;-72
2024/03/02 16:13:16;;;;;;;21.40;4.38;;;;;;;;;;5054032;28;20036;-72
2024/03/02 16:16:21;;;;;;;27.23;5.28;;;;;;;;;;5053545;28;20064;-72
2024/03/02 16:19:26;;;;;;;17.83;4.82;;;;;;;;;;5055724;28;20056;-73
2024/03/02 16:22:30;;;;;;;24.25;5.60;;;;;;;;;;5055024;28;20056;-73
2024/03/02 16:25:36;;;;;;;19.30;4.53;;;;;;;;;;5055311;28;20043;-73
2024/03/02 16:28:41;;;;;;;16.80;4.60;;;;;;;;;;5054039;28;20527;-73
2024/03/02 16:31:45;;;;;;;20.40;5.38;;;;;;;;;;5055527;28;20052;-72
2024/03/02 16:34:51;;;;;;;18.35;4.63;;;;;;;;;;5054252;28;20059;-73
2024/03/02 16:37:55;;;;;;;21.58;4.72;;;;;;;;;;5054743;28;20579;-73
2024/03/02 16:40:59;;;;;;;15.73;4.10;;;;;;;;;;5053642;28;20052;-72